Time;durP1;ratioP1;P1;durP2;ratioP2;P2;SDS_P1;SDS_P2;PMS_P1;PMS_P2;Temp;Humidity;BMP_temperature;BMP_pressure;BME280_temperature;BME280_humidity;BME280_pressure;Samples;Min_cycle;Max_cycle;Signal;HPM_P1;HPM_P2
2022/03/01 00:00:44;;;;;;;2.30;2.03;;;21.20;40.00;;;;;;5023502;28;88485;-78
2022/03/01 00:03:12;;;;;;;2.43;2.23;;;21.20;40.00;;;;;;5023107;28;91100;-79
2022/03/01 00:05:40;;;;;;;2.27;2.00;;;21.20;40.00;;;;;;5023048;28;93149;-79
2022/03/01 00:08:08;;;;;;;5.50;1.83;;;21.10;39.90;;;;;;5022809;28;89095;-79
2022/03/01 00:10:36;;;;;;;1.90;1.70;;;21.20;40.00;;;;;;5023197;28;88478;-79
2022/03/01 00:13:04;;;;;;;2.73;2.23;;;21.10;40.60;;;;;;5042192;28;90643;-79
2022/03/01 00:15:34;;;;;;;3.03;2.10;;;21.10;40.00;;;;;;5043849;28;88724;-79
2022/03/01 00:18:06;;;;;;;3.17;2.13;;;21.10;40.00;;;;;;5043396;28;88393;-79
2022/03/01 00:20:34;;;;;;;2.87;2.20;;;21.10;40.00;;;;;;5043245;28;88388;-79
2022/03/01 00:23:04;;;;;;;3.07;2.00;;;21.10;40.00;;;;;;5042812;28;90933;-79
2022/03/01 00:25:34;;;;;;;2.17;1.90;;;21.00;40.00;;;;;;5042358;28;90128;-79
2022/03/01 00:28:03;;;;;;;3.80;2.37;;;21.00;40.00;;;;;;5042034;28;88339;-79
2022/03/01 00:30:31;;;;;;;4.73;1.87;;;21.00;40.00;;;;;;5043821;28;88445;-79
2022/03/01 00:33:02;;;;;;;2.27;1.53;;;21.00;40.00;;;;;;5042905;28;91069;-80
2022/03/01 00:35:30;;;;;;;3.07;2.07;;;21.00;40.00;;;;;;5043020;28;89939;-80
2022/03/01 00:37:58;;;;;;;4.83;2.27;;;21.00;40.00;;;;;;5042998;28;88304;-79
2022/03/01 00:40:30;;;;;;;3.77;2.63;;;21.00;40.00;;;;;;5043065;28;88524;-79
2022/03/01 00:42:58;;;;;;;3.63;1.90;;;20.90;39.90;;;;;;5042045;28;90970;-79
2022/03/01 00:45:28;;;;;;;2.23;2.03;;;20.90;39.90;;;;;;5040395;28;90098;-79
2022/03/01 00:47:56;;;;;;;2.97;2.40;;;20.90;39.90;;;;;;5044654;28;88171;-79
2022/03/01 00:50:26;;;;;;;2.53;1.73;;;20.90;39.90;;;;;;5044392;28;88494;-80
2022/03/01 00:52:53;;;;;;;3.90;2.13;;;20.90;40.00;;;;;;5045335;28;93397;-79
2022/03/01 00:55:22;;;;;;;3.20;1.80;;;20.90;39.90;;;;;;5043272;28;88850;-79
2022/03/01 00:57:50;;;;;;;3.47;1.90;;;20.80;39.80;;;;;;5042954;28;88357;-80
2022/03/01 01:00:21;;;;;;;3.73;2.47;;;20.90;39.90;;;;;;5041304;28;88552;-80
2022/03/01 01:02:49;;;;;;;2.63;2.10;;;20.80;39.90;;;;;;5043010;28;93367;-79
2022/03/01 01:05:17;;;;;;;2.87;2.03;;;20.80;39.90;;;;;;5042384;28;90032;-79
2022/03/01 01:07:47;;;;;;;2.77;1.90;;;20.80;39.90;;;;;;5042195;28;88247;-79
2022/03/01 01:10:15;;;;;;;2.63;2.00;;;20.80;39.90;;;;;;5041718;28;88512;-79
2022/03/01 01:12:43;;;;;;;2.10;1.90;;;20.70;39.90;;;;;;5042115;28;90705;-79
2022/03/01 01:15:11;;;;;;;3.33;1.90;;;20.70;39.90;;;;;;5042513;28;89485;-79
2022/03/01 01:17:39;;;;;;;2.83;2.00;;;20.70;39.90;;;;;;5041063;28;88408;-79
2022/03/01 01:20:08;;;;;;;2.20;2.00;;;20.70;39.90;;;;;;5042198;28;88592;-77
2022/03/01 01:22:41;;;;;;;2.47;1.97;;;20.70;39.90;;;;;;5041176;28;90698;-77
2022/03/01 01:25:13;;;;;;;3.20;2.40;;;20.70;39.90;;;;;;5041893;28;89990;-77
2022/03/01 01:27:42;;;;;;;3.90;2.37;;;20.60;39.80;;;;;;5042757;28;89495;-79
2022/03/01 01:30:11;;;;;;;2.23;2.03;;;20.70;39.90;;;;;;5042277;28;88456;-79
2022/03/01 01:32:39;;;;;;;3.93;2.83;;;20.70;39.90;;;;;;5040726;28;92562;-79
2022/03/01 01:35:08;;;;;;;3.20;2.30;;;20.60;39.70;;;;;;5041607;28;89012;-80
2022/03/01 01:37:36;;;;;;;2.90;2.27;;;20.60;39.80;;;;;;5041609;28;88530;-79
2022/03/01 01:40:05;;;;;;;5.30;2.73;;;20.60;39.80;;;;;;5042132;28;88317;-77
2022/03/01 01:42:35;;;;;;;2.87;2.30;;;20.60;39.80;;;;;;5041722;28;90712;-79
2022/03/01 01:45:03;;;;;;;2.40;2.10;;;20.60;39.70;;;;;;5041140;28;90225;-77
2022/03/01 01:47:47;;;;;;;3.97;2.33;;;20.60;39.80;;;;;;5041683;28;88408;-78
2022/03/01 01:50:15;;;;;;;2.70;2.30;;;20.50;40.10;;;;;;5040416;28;88444;-79
2022/03/01 01:52:44;;;;;;;2.67;2.07;;;20.60;39.80;;;;;;5041738;28;90695;-77
2022/03/01 01:55:12;;;;;;;2.70;2.20;;;20.50;39.80;;;;;;5041118;28;90449;-77
2022/03/01 01:57:42;;;;;;;4.17;2.50;;;20.50;39.80;;;;;;5041787;28;88154;-77
2022/03/01 02:00:11;;;;;;;6.17;2.23;;;20.50;39.80;;;;;;5042036;28;88526;-77
2022/03/01 02:02:39;;;;;;;3.70;2.10;;;20.50;39.80;;;;;;5041639;28;91073;-77
2022/03/01 02:05:08;;;;;;;4.80;2.60;;;20.50;39.90;;;;;;5041537;28;90292;-77
2022/03/01 02:07:36;;;;;;;3.37;2.30;;;20.50;39.80;;;;;;5039273;28;89535;-77
2022/03/01 02:10:07;;;;;;;2.53;2.20;;;20.50;39.80;;;;;;5041735;28;88504;-77
2022/03/01 02:12:36;;;;;;;4.37;2.57;;;20.40;39.70;;;;;;5042267;28;90636;-77
2022/03/01 02:15:05;;;;;;;2.90;2.10;;;20.40;39.80;;;;;;5049621;28;90449;-78
2022/03/01 02:17:33;;;;;;;2.97;2.13;;;20.40;39.80;;;;;;5048361;28;88266;-78
2022/03/01 02:20:11;;;;;;;2.73;2.43;;;20.40;39.80;;;;;;5044139;28;88369;-77
2022/03/01 02:22:39;;;;;;;4.00;2.43;;;20.40;39.80;;;;;;5042209;28;93500;-77
2022/03/01 02:25:08;;;;;;;2.57;2.10;;;20.40;39.80;;;;;;5040988;28;90465;-77
2022/03/01 02:27:36;;;;;;;2.43;2.23;;;20.40;39.80;;;;;;5042024;28;88422;-78
2022/03/01 02:30:05;;;;;;;5.43;2.60;;;20.40;39.80;;;;;;5041504;28;88420;-77
2022/03/01 02:32:33;;;;;;;2.90;2.20;;;20.30;39.80;;;;;;5039555;28;90147;-77
2022/03/01 02:35:01;;;;;;;2.50;2.17;;;20.30;39.80;;;;;;5020963;28;90121;-77
2022/03/01 02:37:30;;;;;;;2.57;2.30;;;20.30;39.90;;;;;;5020771;28;88403;-77
2022/03/01 02:39:58;;;;;;;2.47;2.23;;;20.30;39.90;;;;;;5021415;28;88511;-77
2022/03/01 02:42:30;;;;;;;2.60;2.00;;;20.30;39.90;;;;;;5021869;28;88924;-77
2022/03/01 02:44:58;;;;;;;3.03;1.93;;;20.30;39.90;;;;;;5021366;28;90032;-77
2022/03/01 02:47:26;;;;;;;2.57;2.17;;;20.30;39.90;;;;;;5021726;28;88294;-77
2022/03/01 02:49:54;;;;;;;2.27;2.00;;;20.20;39.80;;;;;;5034206;28;88507;-77
2022/03/01 02:52:22;;;;;;;2.73;2.07;;;20.20;39.90;;;;;;5040804;28;91052;-77
2022/03/01 02:54:52;;;;;;;3.27;2.47;;;20.20;39.90;;;;;;5041163;28;89968;-77
2022/03/01 02:57:20;;;;;;;2.30;2.00;;;20.20;39.90;;;;;;5041166;28;88362;-77
2022/03/01 02:59:48;;;;;;;2.97;2.20;;;20.20;40.00;;;;;;5041060;28;88433;-77
2022/03/01 03:02:16;;;;;;;2.50;2.20;;;20.20;40.00;;;;;;5041071;28;90227;-77
2022/03/01 03:04:45;;;;;;;2.77;2.17;;;20.20;40.00;;;;;;5038211;28;88883;-77
2022/03/01 03:07:13;;;;;;;3.93;2.80;;;20.20;40.00;;;;;;5020728;28;88249;-77
2022/03/01 03:09:42;;;;;;;3.00;2.47;;;20.20;40.00;;;;;;5021448;28;88476;-77
2022/03/01 03:12:11;;;;;;;2.50;2.27;;;20.20;40.00;;;;;;5020725;28;90719;-77
2022/03/01 03:14:39;;;;;;;3.77;2.90;;;20.20;40.00;;;;;;5020449;28;90118;-77
2022/03/01 03:17:07;;;;;;;2.47;2.13;;;20.10;39.90;;;;;;5020828;28;88527;-77
2022/03/01 03:19:36;;;;;;;2.53;2.33;;;20.10;39.90;;;;;;5020605;28;88449;-78
2022/03/01 03:22:05;;;;;;;2.67;2.27;;;20.10;39.90;;;;;;5020414;28;90887;-77
2022/03/01 03:24:33;;;;;;;2.87;2.33;;;20.10;39.90;;;;;;5020372;28;89786;-77
2022/03/01 03:27:01;;;;;;;2.80;2.50;;;20.10;39.90;;;;;;5020864;28;88399;-77
2022/03/01 03:29:30;;;;;;;2.10;1.87;;;20.10;39.90;;;;;;5020486;28;88471;-77
2022/03/01 03:31:58;;;;;;;3.43;2.63;;;20.00;39.80;;;;;;5020252;28;90651;-77
2022/03/01 03:34:26;;;;;;;3.93;2.70;;;20.00;39.80;;;;;;5020617;28;89347;-77
2022/03/01 03:36:54;;;;;;;4.13;2.70;;;20.20;40.60;;;;;;5020321;28;88510;-77
2022/03/01 03:39:22;;;;;;;2.30;2.10;;;20.00;39.80;;;;;;5039730;28;88324;-77
2022/03/01 03:41:51;;;;;;;3.13;2.53;;;20.00;39.80;;;;;;5040662;28;93955;-77
2022/03/01 03:44:20;;;;;;;4.23;2.47;;;20.00;39.90;;;;;;5040397;27;90503;-77
2022/03/01 03:46:50;;;;;;;3.67;2.43;;;20.00;39.90;;;;;;5044341;28;88379;-78
2022/03/01 03:49:19;;;;;;;2.50;2.10;;;20.00;39.90;;;;;;5044275;28;88360;-77
2022/03/01 03:51:47;;;;;;;2.93;2.07;;;19.90;39.80;;;;;;5043961;28;90461;-77
2022/03/01 03:54:15;;;;;;;3.00;2.53;;;20.00;39.90;;;;;;5039913;28;90061;-77
2022/03/01 03:56:44;;;;;;;2.83;2.40;;;20.00;40.00;;;;;;5023436;28;88592;-77
2022/03/01 03:59:12;;;;;;;4.17;2.20;;;19.90;39.90;;;;;;5024108;28;88523;-77
2022/03/01 04:01:40;;;;;;;3.33;2.50;;;19.90;39.90;;;;;;5023140;28;90683;-77
2022/03/01 04:04:10;;;;;;;2.40;2.00;;;19.90;39.90;;;;;;5023235;28;92989;-77
2022/03/01 04:06:39;;;;;;;2.87;2.00;;;19.90;39.90;;;;;;5022490;28;88410;-77
2022/03/01 04:09:07;;;;;;;2.67;2.27;;;19.90;39.90;;;;;;5023790;28;88339;-77
2022/03/01 04:11:35;;;;;;;3.80;2.20;;;19.90;40.00;;;;;;5039816;28;90689;-77
2022/03/01 04:14:03;;;;;;;3.43;2.03;;;19.90;40.00;;;;;;5043210;28;90046;-77
2022/03/01 04:16:31;;;;;;;2.70;2.20;;;19.90;40.00;;;;;;5043534;28;88373;-77
2022/03/01 04:19:02;;;;;;;4.17;2.60;;;19.90;40.00;;;;;;5043593;28;88862;-77
2022/03/01 04:21:31;;;;;;;3.30;2.23;;;19.90;40.00;;;;;;5042510;28;89475;-77
2022/03/01 04:23:59;;;;;;;2.43;2.20;;;19.90;40.00;;;;;;5043238;28;90038;-77
2022/03/01 04:26:27;;;;;;;2.97;2.50;;;19.90;40.00;;;;;;5043524;28;88373;-77
2022/03/01 04:28:55;;;;;;;2.90;2.13;;;19.90;40.10;;;;;;5043400;28;89013;-77
2022/03/01 04:31:23;;;;;;;3.00;2.17;;;19.80;40.00;;;;;;5043887;28;90231;-77
2022/03/01 04:33:54;;;;;;;2.97;2.60;;;19.80;40.00;;;;;;5044197;28;89346;-77
2022/03/01 04:36:22;;;;;;;3.00;2.40;;;19.80;40.00;;;;;;5041841;28;88370;-76
2022/03/01 04:38:52;;;;;;;4.40;2.50;;;19.80;40.00;;;;;;5025093;28;89295;-77
2022/03/01 04:41:20;;;;;;;2.87;2.57;;;19.80;40.00;;;;;;5025267;28;90224;-76
2022/03/01 04:43:48;;;;;;;3.70;2.50;;;19.70;39.90;;;;;;5032764;28;90131;-77
2022/03/01 04:46:18;;;;;;;3.63;2.57;;;19.80;40.00;;;;;;5043623;28;88214;-77
2022/03/01 04:48:46;;;;;;;2.70;2.50;;;19.80;40.00;;;;;;5042280;28;88472;-77
2022/03/01 04:51:21;;;;;;;4.63;2.13;;;19.70;39.90;;;;;;5042623;28;93655;-77
2022/03/01 04:53:50;;;;;;;2.73;2.23;;;19.70;40.00;;;;;;5042863;28;91899;-77
2022/03/01 04:56:19;;;;;;;3.07;2.27;;;19.70;40.00;;;;;;5042950;28;88295;-77
2022/03/01 04:58:47;;;;;;;2.93;2.63;;;19.70;40.00;;;;;;5043030;28;88510;-77
2022/03/01 05:01:15;;;;;;;2.73;2.30;;;19.70;40.00;;;;;;5038636;28;91029;-77
2022/03/01 05:03:43;;;;;;;3.40;2.30;;;19.70;40.70;;;;;;5022385;28;91547;-77
2022/03/01 05:06:11;;;;;;;3.00;2.27;;;19.60;40.00;;;;;;5022024;28;89615;-77
2022/03/01 05:08:39;;;;;;;4.00;2.30;;;19.60;40.00;;;;;;5022677;28;88634;-77
2022/03/01 05:11:08;;;;;;;3.50;2.40;;;19.60;40.00;;;;;;5023079;28;90869;-77
2022/03/01 05:13:36;;;;;;;3.83;2.20;;;19.60;40.00;;;;;;5022580;28;88872;-76
2022/03/01 05:16:05;;;;;;;3.20;2.63;;;19.60;40.00;;;;;;5022978;28;88091;-77
2022/03/01 05:18:35;;;;;;;4.07;2.47;;;19.60;40.10;;;;;;5022179;28;89522;-77
2022/03/01 05:21:03;;;;;;;3.50;2.43;;;19.60;40.10;;;;;;5022075;28;90964;-77
2022/03/01 05:23:31;;;;;;;2.50;2.30;;;19.60;40.10;;;;;;5022386;28;90137;-76
2022/03/01 05:25:59;;;;;;;2.67;1.93;;;19.60;40.10;;;;;;5022458;28;88438;-77
2022/03/01 05:28:29;;;;;;;2.30;2.07;;;19.60;40.10;;;;;;5022694;28;88582;-77
2022/03/01 05:30:57;;;;;;;2.73;2.00;;;19.60;40.10;;;;;;5022327;28;90895;-77
2022/03/01 05:33:25;;;;;;;4.27;2.20;;;19.50;40.10;;;;;;5022635;28;90257;-77
2022/03/01 05:35:53;;;;;;;2.20;2.00;;;19.50;40.00;;;;;;5023333;28;88421;-76
2022/03/01 05:38:21;;;;;;;2.83;2.33;;;19.50;40.10;;;;;;5022745;28;88513;-77
2022/03/01 05:40:49;;;;;;;2.83;2.10;;;19.60;40.20;;;;;;5022429;28;90628;-76
2022/03/01 05:43:17;;;;;;;2.93;2.20;;;19.50;40.10;;;;;;5021883;28;90229;-76
2022/03/01 05:45:47;;;;;;;3.57;2.57;;;19.60;40.20;;;;;;5022135;28;88456;-76
2022/03/01 05:48:15;;;;;;;3.57;2.60;;;19.50;40.10;;;;;;5022195;28;88662;-76
2022/03/01 05:50:46;;;;;;;3.73;2.80;;;19.50;40.10;;;;;;5021904;28;92785;-77
2022/03/01 05:53:14;;;;;;;4.07;2.63;;;19.60;40.20;;;;;;5022079;28;89455;-76
2022/03/01 05:55:42;;;;;;;2.60;1.90;;;19.50;40.10;;;;;;5021945;28;88598;-76
2022/03/01 05:58:10;;;;;;;3.37;2.30;;;19.50;40.10;;;;;;5022722;28;88594;-76
2022/03/01 06:00:38;;;;;;;2.23;2.03;;;19.50;40.10;;;;;;5022342;28;90759;-76
2022/03/01 06:03:08;;;;;;;2.60;1.73;;;19.50;40.10;;;;;;5021848;28;89906;-76
2022/03/01 06:05:36;;;;;;;3.03;2.40;;;19.50;40.10;;;;;;5021742;28;88426;-77
2022/03/01 06:08:04;;;;;;;3.53;2.67;;;19.40;40.10;;;;;;5021105;28;88634;-76
2022/03/01 06:10:32;;;;;;;2.83;1.87;;;19.40;40.10;;;;;;5021887;28;90942;-76
2022/03/01 06:13:00;;;;;;;3.20;2.10;;;19.40;40.10;;;;;;5021763;28;89035;-76
2022/03/01 06:15:28;;;;;;;3.03;2.00;;;19.40;40.00;;;;;;5022022;28;88377;-76
2022/03/01 06:17:56;;;;;;;3.23;2.63;;;19.40;40.10;;;;;;5022125;28;88555;-76
2022/03/01 06:20:27;;;;;;;2.63;2.37;;;19.40;40.10;;;;;;5022183;28;93927;-76
2022/03/01 06:22:55;;;;;;;3.13;1.97;;;19.40;40.10;;;;;;5025614;28;90047;-77
2022/03/01 06:25:23;;;;;;;3.50;2.37;;;19.40;40.10;;;;;;5042320;28;88342;-77
2022/03/01 06:27:52;;;;;;;2.73;2.00;;;19.40;40.10;;;;;;5042157;28;88139;-77
2022/03/01 06:30:20;;;;;;;3.47;2.67;;;19.30;40.10;;;;;;5038518;28;90618;-76
2022/03/01 06:32:48;;;;;;;3.57;2.30;;;19.30;40.70;;;;;;5031331;28;89029;-76
2022/03/01 06:35:16;;;;;;;3.20;2.13;;;19.30;40.10;;;;;;5025089;28;88419;-76
2022/03/01 06:37:50;;;;;;;3.10;2.40;;;19.30;40.10;;;;;;5029762;28;88594;-76
2022/03/01 06:40:20;;;;;;;2.47;2.10;;;19.30;40.10;;;;;;5028062;28;90261;-76
2022/03/01 06:42:48;;;;;;;3.40;2.23;;;19.30;40.10;;;;;;5025586;28;89985;-76
2022/03/01 06:45:16;;;;;;;2.43;1.70;;;19.30;40.20;;;;;;5025790;28;88342;-75
2022/03/01 06:47:44;;;;;;;3.70;2.17;;;19.30;40.10;;;;;;5034043;28;88498;-75
2022/03/01 06:50:15;;;;;;;2.30;2.03;;;19.30;40.10;;;;;;5031342;28;90086;-76
2022/03/01 06:52:42;;;;;;;3.07;2.10;;;19.30;40.20;;;;;;5023943;28;92873;-75
2022/03/01 06:55:12;;;;;;;2.17;1.83;;;19.30;40.20;;;;;;5021854;28;88626;-74
2022/03/01 06:57:40;;;;;;;3.90;2.47;;;19.30;40.20;;;;;;5021882;28;88582;-75
2022/03/01 07:00:09;;;;;;;4.20;2.37;;;19.30;40.20;;;;;;5021369;28;90725;-75
2022/03/01 07:02:39;;;;;;;3.27;2.73;;;19.30;40.20;;;;;;5021354;28;93199;-75
2022/03/01 07:05:08;;;;;;;2.57;2.10;;;19.30;40.20;;;;;;5021172;28;88385;-75
2022/03/01 07:07:36;;;;;;;2.77;2.07;;;19.30;40.20;;;;;;5022879;28;88556;-76
2022/03/01 07:10:05;;;;;;;2.67;2.20;;;19.30;40.20;;;;;;5032370;28;89047;-75
2022/03/01 07:12:35;;;;;;;3.47;2.40;;;19.30;40.80;;;;;;5027865;28;90113;-75
2022/03/01 07:15:03;;;;;;;2.40;2.17;;;19.30;40.20;;;;;;5028607;28;88448;-75
2022/03/01 07:17:31;;;;;;;3.63;2.00;;;19.30;40.20;;;;;;5028161;28;89453;-76
2022/03/01 07:19:59;;;;;;;5.40;2.90;;;19.30;40.20;;;;;;5039567;27;90603;-78
2022/03/01 07:22:27;;;;;;;1.80;1.60;;;19.30;40.20;;;;;;5044038;28;89988;-78
2022/03/01 07:24:58;;;;;;;3.07;2.27;;;19.20;40.10;;;;;;5044031;28;88437;-77
2022/03/01 07:27:27;;;;;;;2.53;1.90;;;19.20;40.10;;;;;;5043913;28;88658;-77
2022/03/01 07:29:57;;;;;;;3.83;2.17;;;19.20;40.20;;;;;;5040465;28;89856;-75
2022/03/01 07:32:25;;;;;;;2.70;2.20;;;19.20;40.20;;;;;;5023856;28;90377;-75
2022/03/01 07:34:53;;;;;;;2.30;2.10;;;19.30;40.40;;;;;;5024135;28;88250;-72
2022/03/01 07:37:24;;;;;;;3.60;2.50;;;19.30;40.60;;;;;;5042399;28;88449;-76
2022/03/01 07:39:55;;;;;;;8.43;2.83;;;19.30;40.80;;;;;;5043643;28;90641;-76
2022/03/01 07:42:23;;;;;;;6.50;3.10;;;19.30;41.00;;;;;;5038788;28;90533;-70
2022/03/01 07:44:51;;;;;;;5.33;3.27;;;19.20;41.10;;;;;;5033656;28;88535;-69
2022/03/01 07:47:21;;;;;;;4.00;2.93;;;19.30;41.40;;;;;;5033224;28;89266;-70
2022/03/01 07:49:54;;;;;;;4.37;3.20;;;19.30;41.50;;;;;;5033806;28;90743;-70
2022/03/01 07:52:22;;;;;;;2.93;2.20;;;19.30;41.60;;;;;;5022893;28;90074;-70
2022/03/01 07:54:50;;;;;;;4.70;2.77;;;19.30;41.70;;;;;;5033467;28;88458;-70
2022/03/01 07:57:18;;;;;;;4.00;1.93;;;19.20;41.70;;;;;;5031417;28;88619;-71
2022/03/01 07:59:46;;;;;;;3.00;2.37;;;19.20;41.80;;;;;;5033626;28;93720;-70
2022/03/01 08:02:14;;;;;;;4.87;2.27;;;19.30;42.00;;;;;;5032426;28;90196;-72
2022/03/01 08:04:44;;;;;;;3.83;2.40;;;19.30;42.10;;;;;;5022554;28;88606;-71
2022/03/01 08:07:24;;;;;;;3.37;2.30;;;19.30;42.20;;;;;;5031072;28;88618;-71
2022/03/01 08:09:51;;;;;;;4.07;2.40;;;19.30;42.40;;;;;;5033932;27;91059;-72
2022/03/01 08:12:20;;;;;;;3.90;2.33;;;19.40;42.70;;;;;;5033542;28;88658;-71
2022/03/01 08:14:47;;;;;;;4.03;2.67;;;19.40;42.90;;;;;;5027098;28;88424;-71
2022/03/01 08:17:17;;;;;;;4.00;2.53;;;19.40;43.00;;;;;;5022894;28;88646;-71
2022/03/01 08:19:46;;;;;;;4.53;2.13;;;19.50;43.10;;;;;;5032471;28;90727;-72
2022/03/01 08:22:14;;;;;;;6.30;2.70;;;19.70;43.30;;;;;;5032465;28;90207;-72
2022/03/01 08:24:42;;;;;;;3.87;2.00;;;19.90;43.30;;;;;;5022507;28;88296;-73
2022/03/01 08:27:10;;;;;;;3.07;2.00;;;20.10;43.30;;;;;;5022932;28;88495;-74
2022/03/01 08:29:38;;;;;;;3.80;1.87;;;20.30;43.20;;;;;;5023127;28;93676;-74
2022/03/01 08:32:06;;;;;;;4.83;2.73;;;20.50;43.10;;;;;;5022559;28;92277;-74
2022/03/01 08:34:34;;;;;;;3.93;2.20;;;20.80;43.00;;;;;;5023067;28;88653;-74
2022/03/01 08:37:04;;;;;;;4.63;1.93;;;21.00;42.80;;;;;;5022649;28;88485;-74
2022/03/01 08:39:32;;;;;;;2.30;2.07;;;21.30;42.80;;;;;;5033879;28;90963;-74
2022/03/01 08:42:00;;;;;;;2.33;1.93;;;21.50;42.60;;;;;;5042916;27;90005;-74
2022/03/01 08:44:28;;;;;;;3.77;1.90;;;21.70;42.50;;;;;;5042699;28;88287;-74
2022/03/01 08:46:56;;;;;;;3.47;2.27;;;21.80;42.30;;;;;;5042410;28;88533;-74
2022/03/01 08:49:24;;;;;;;3.10;2.40;;;22.00;42.30;;;;;;5043145;28;92394;-74
2022/03/01 08:51:52;;;;;;;4.13;2.23;;;21.90;42.10;;;;;;5039850;28;91796;-73
2022/03/01 08:54:22;;;;;;;3.27;2.17;;;21.90;42.00;;;;;;5025272;27;88559;-73
2022/03/01 08:56:50;;;;;;;3.37;2.17;;;22.00;42.00;;;;;;5022653;28;88633;-73
2022/03/01 08:59:18;;;;;;;3.20;1.80;;;22.00;42.00;;;;;;5022404;28;89682;-73
2022/03/01 09:01:46;;;;;;;2.87;2.20;;;22.10;41.90;;;;;;5022074;28;90518;-74
2022/03/01 09:04:14;;;;;;;5.63;2.33;;;22.20;42.40;;;;;;5039569;27;88555;-74
2022/03/01 09:06:43;;;;;;;5.93;2.37;;;22.40;41.70;;;;;;5025524;28;88525;-75
2022/03/01 09:09:11;;;;;;;3.50;1.97;;;22.50;41.60;;;;;;5031088;28;91012;-74
2022/03/01 09:11:41;;;;;;;3.93;2.13;;;22.60;41.40;;;;;;5027490;28;92307;-74
2022/03/01 09:14:09;;;;;;;14.10;2.47;;;22.70;41.40;;;;;;5024416;28;88408;-74
2022/03/01 09:16:38;;;;;;;2.70;1.97;;;22.70;41.90;;;;;;5042422;28;88467;-78
2022/03/01 09:19:06;;;;;;;2.53;1.83;;;22.70;41.20;;;;;;5044114;28;90719;-76
2022/03/01 09:21:34;;;;;;;2.77;2.03;;;22.70;41.20;;;;;;5044038;28;90429;-77
2022/03/01 09:24:02;;;;;;;4.37;2.20;;;22.70;41.10;;;;;;5043295;28;88456;-77
2022/03/01 09:26:30;;;;;;;2.40;2.00;;;22.80;41.10;;;;;;5041912;28;88499;-77
2022/03/01 09:29:00;;;;;;;3.20;2.43;;;22.90;41.00;;;;;;5041656;28;89691;-77
2022/03/01 09:31:31;;;;;;;1.90;1.70;;;23.00;41.00;;;;;;5042715;28;89316;-77
2022/03/01 09:33:59;;;;;;;4.13;1.97;;;23.20;40.90;;;;;;5042811;28;88366;-77
2022/03/01 09:36:27;;;;;;;2.93;1.70;;;23.30;40.80;;;;;;5042620;28;88473;-77
2022/03/01 09:38:55;;;;;;;2.93;1.77;;;23.40;40.60;;;;;;5041953;28;89802;-77
2022/03/01 09:41:23;;;;;;;3.83;1.93;;;23.60;40.50;;;;;;5034531;28;90402;-77
2022/03/01 09:43:53;;;;;;;6.07;2.00;;;23.70;40.50;;;;;;5022019;28;88305;-76
2022/03/01 09:46:22;;;;;;;1.97;1.63;;;23.70;39.80;;;;;;5021671;28;88583;-77
2022/03/01 09:48:50;;;;;;;1.83;1.73;;;23.70;40.20;;;;;;5021841;28;90600;-77
2022/03/01 09:51:18;;;;;;;4.17;1.90;;;23.60;40.20;;;;;;5024226;28;93339;-77
2022/03/01 09:53:47;;;;;;;2.97;2.07;;;23.60;40.20;;;;;;5031054;28;88586;-78
2022/03/01 09:56:16;;;;;;;2.40;1.73;;;23.60;40.20;;;;;;5028099;28;88553;-77
2022/03/01 09:58:45;;;;;;;2.40;1.70;;;23.60;40.10;;;;;;5028367;28;90664;-76
2022/03/01 10:01:13;;;;;;;3.60;2.33;;;23.70;40.00;;;;;;5028798;28;90006;-77
2022/03/01 10:03:48;;;;;;;3.10;2.30;;;23.80;40.60;;;;;;5028435;28;88420;-78
2022/03/01 10:06:17;;;;;;;3.37;2.13;;;23.90;39.90;;;;;;5027400;28;88583;-77
2022/03/01 10:08:46;;;;;;;2.80;2.27;;;24.00;39.70;;;;;;5027004;28;90222;-77
2022/03/01 10:11:18;;;;;;;2.83;1.93;;;24.20;39.70;;;;;;5038784;28;89945;-77
2022/03/01 10:13:46;;;;;;;2.40;1.90;;;24.20;39.50;;;;;;5022777;28;88578;-77
2022/03/01 10:16:15;;;;;;;4.40;1.93;;;24.40;39.50;;;;;;5030305;28;88511;-77
2022/03/01 10:18:50;;;;;;;4.00;2.13;;;24.50;39.40;;;;;;5032025;28;90584;-77
2022/03/01 10:21:18;;;;;;;2.57;1.97;;;24.50;39.20;;;;;;5040768;28;90049;-78
2022/03/01 10:23:49;;;;;;;4.20;2.37;;;24.50;39.10;;;;;;5021531;28;88778;-77
2022/03/01 10:26:19;;;;;;;2.60;2.10;;;24.50;39.10;;;;;;5020923;28;89198;-77
2022/03/01 10:28:47;;;;;;;3.13;2.23;;;24.40;39.00;;;;;;5034195;28;90081;-77
2022/03/01 10:31:16;;;;;;;4.27;2.30;;;24.40;39.70;;;;;;5041685;28;90393;-79
2022/03/01 10:33:56;;;;;;;3.67;2.20;;;24.30;39.00;;;;;;5041040;28;88344;-78
2022/03/01 10:36:25;;;;;;;2.20;1.93;;;24.10;39.00;;;;;;5041802;28;88477;-78
2022/03/01 10:38:57;;;;;;;7.07;2.37;;;24.00;38.90;;;;;;5033203;28;90774;-78
2022/03/01 10:41:26;;;;;;;3.90;2.20;;;24.00;39.10;;;;;;5030878;28;88481;-78
2022/03/01 10:43:57;;;;;;;4.90;2.27;;;23.80;39.00;;;;;;5031836;28;88536;-79
2022/03/01 10:46:25;;;;;;;2.77;1.53;;;23.80;39.10;;;;;;5032580;28;88613;-79
2022/03/01 10:49:02;;;;;;;4.20;2.23;;;23.70;39.10;;;;;;5031140;28;90670;-79
2022/03/01 10:51:30;;;;;;;4.43;2.27;;;23.70;39.10;;;;;;5030830;28;89651;-78
2022/03/01 10:53:59;;;;;;;2.23;1.77;;;23.80;39.80;;;;;;5028197;28;88351;-79
2022/03/01 10:56:35;;;;;;;2.87;1.70;;;23.90;39.10;;;;;;5024768;28;88269;-78
2022/03/01 10:59:03;;;;;;;2.60;2.00;;;24.00;39.10;;;;;;5024058;28;90761;-79
2022/03/01 11:01:32;;;;;;;3.40;1.67;;;24.20;38.90;;;;;;5009876;28;90038;-78
2022/03/01 11:04:03;;;;;;;3.67;1.90;;;24.40;38.90;;;;;;5025008;28;88425;-80
2022/03/01 11:06:31;;;;;;;7.07;2.30;;;24.40;38.70;;;;;;5024869;28;89734;-79
2022/03/01 11:08:59;;;;;;;5.37;2.00;;;24.50;38.60;;;;;;5031563;28;90527;-80
2022/03/01 11:11:27;;;;;;;2.80;2.17;;;24.50;38.50;;;;;;5044538;28;90008;-80
2022/03/01 11:13:55;;;;;;;3.43;2.43;;;24.50;38.50;;;;;;5045088;28;88299;-80
2022/03/01 11:16:32;;;;;;;2.23;1.90;;;24.50;38.50;;;;;;5041132;28;88472;-79
2022/03/01 11:19:17;;;;;;;2.67;1.60;;;24.50;38.50;;;;;;5031017;28;92570;-80
2022/03/01 11:21:47;;;;;;;2.13;1.93;;;24.40;38.50;;;;;;5024092;28;90234;-80
2022/03/01 11:24:16;;;;;;;2.47;1.87;;;24.40;38.60;;;;;;5030440;28;88388;-80
2022/03/01 11:26:44;;;;;;;2.73;1.90;;;24.30;38.60;;;;;;5028885;28;88436;-80
2022/03/01 11:29:13;;;;;;;16.00;11.10;;;24.20;39.20;;;;;;5023830;28;90912;-78
2022/03/01 11:31:42;;;;;;;13.63;8.53;;;24.10;38.80;;;;;;5022520;28;89554;-77
2022/03/01 11:34:14;;;;;;;13.37;7.57;;;24.20;39.00;;;;;;5031725;28;89371;-77
2022/03/01 11:36:48;;;;;;;12.53;7.30;;;24.20;38.90;;;;;;5044832;28;88374;-78
2022/03/01 11:39:24;;;;;;;11.60;7.20;;;24.20;39.10;;;;;;5040003;28;90774;-77
2022/03/01 11:41:54;;;;;;;17.53;6.67;;;24.10;39.80;;;;;;5033991;28;90011;-78
2022/03/01 11:44:25;;;;;;;13.37;7.07;;;24.10;39.20;;;;;;5033381;28;88406;-76
2022/03/01 11:46:53;;;;;;;12.27;6.47;;;24.10;39.30;;;;;;5043205;28;88523;-76
2022/03/01 11:49:23;;;;;;;13.33;6.77;;;24.20;39.40;;;;;;5040521;28;90566;-74
2022/03/01 11:51:54;;;;;;;10.70;6.00;;;24.20;39.60;;;;;;5037957;28;90065;-77
2022/03/01 11:54:23;;;;;;;13.73;6.30;;;24.20;39.70;;;;;;5031834;28;88521;-77
2022/03/01 11:56:53;;;;;;;11.33;5.93;;;24.20;39.90;;;;;;5033549;28;88548;-77
2022/03/01 11:59:21;;;;;;;8.43;6.43;;;24.20;40.00;;;;;;5028999;28;90093;-76
2022/03/01 12:02:10;;;;;;;7.20;5.43;;;24.20;40.10;;;;;;5023208;28;91650;-76
2022/03/01 12:04:46;;;;;;;5.77;4.33;;;24.10;40.10;;;;;;5022851;28;88488;-77
2022/03/01 12:07:18;;;;;;;7.23;4.77;;;24.00;40.20;;;;;;5022457;28;88467;-76
2022/03/01 12:09:54;;;;;;;9.83;5.23;;;24.00;40.30;;;;;;5028026;28;90043;-76
2022/03/01 12:12:31;;;;;;;10.53;4.17;;;23.90;40.30;;;;;;5028926;28;90056;-76
2022/03/01 12:14:59;;;;;;;5.67;4.10;;;23.80;40.30;;;;;;5031374;28;88538;-77
2022/03/01 12:17:27;;;;;;;6.53;3.93;;;23.80;40.40;;;;;;5034612;28;88759;-77
2022/03/01 12:20:00;;;;;;;7.20;3.93;;;23.70;40.40;;;;;;5030423;28;90841;-77
2022/03/01 12:22:29;;;;;;;7.00;3.87;;;23.60;40.50;;;;;;5040443;28;90009;-76
2022/03/01 12:24:57;;;;;;;5.77;3.50;;;23.60;40.50;;;;;;5040471;28;88482;-77
2022/03/01 12:27:30;;;;;;;7.77;3.83;;;23.50;40.60;;;;;;5043636;28;88509;-76
2022/03/01 12:30:00;;;;;;;6.10;3.63;;;23.40;40.60;;;;;;5040680;28;88512;-76
2022/03/01 12:32:28;;;;;;;7.57;3.07;;;23.40;40.60;;;;;;5043088;28;89847;-76
2022/03/01 12:34:58;;;;;;;7.23;3.27;;;23.40;40.70;;;;;;5025688;28;88296;-77
2022/03/01 12:37:28;;;;;;;6.90;2.97;;;23.40;40.70;;;;;;5029743;28;88495;-76
2022/03/01 12:39:56;;;;;;;5.70;3.00;;;23.50;40.70;;;;;;5040317;28;90749;-76
2022/03/01 12:42:27;;;;;;;6.23;2.83;;;23.60;41.30;;;;;;5041821;28;90018;-76
2022/03/01 12:44:55;;;;;;;4.40;2.80;;;23.80;40.60;;;;;;5040063;28;89181;-76
2022/03/01 12:47:23;;;;;;;5.63;2.77;;;23.90;40.50;;;;;;5041934;28;88529;-76
2022/03/01 12:49:51;;;;;;;3.43;2.40;;;24.10;40.50;;;;;;5042650;28;90770;-76
2022/03/01 12:52:20;;;;;;;3.07;2.40;;;24.20;40.30;;;;;;5042270;28;90348;-76
2022/03/01 12:54:50;;;;;;;4.17;2.90;;;24.30;40.20;;;;;;5043320;28;88487;-76